createdAt,value
2018-02-20T00:00:06.220Z,28.90
2018-02-20T00:01:06.195Z,28.60
2018-02-20T00:02:06.188Z,29.50
2018-02-20T00:03:06.176Z,28.00
2018-02-20T00:04:06.168Z,30.00
2018-02-20T00:05:06.153Z,30.60
2018-02-20T00:06:06.144Z,29.50
2018-02-20T00:07:06.131Z,29.80
2018-02-20T00:08:06.123Z,30.10
2018-02-20T00:09:06.112Z,29.20
2018-02-20T00:10:06.099Z,28.20
2018-02-20T00:11:06.091Z,30.00
2018-02-20T00:12:06.083Z,28.90
2018-02-20T00:13:06.070Z,29.60
2018-02-20T00:14:06.071Z,29.80
2018-02-20T00:15:06.051Z,29.40
2018-02-20T00:16:06.039Z,29.60
2018-02-20T00:17:06.026Z,30.70
2018-02-20T00:18:06.017Z,30.70
2018-02-20T00:19:06.007Z,30.20
2018-02-20T00:20:05.996Z,29.30
2018-02-20T00:21:05.986Z,30.50
2018-02-20T00:22:05.975Z,30.60
2018-02-20T00:23:05.964Z,31.00
2018-02-20T00:24:05.956Z,31.70
2018-02-20T00:25:05.947Z,31.10
2018-02-20T00:26:05.932Z,31.40
2018-02-20T00:27:05.922Z,32.40
2018-02-20T00:28:05.908Z,30.70
2018-02-20T00:29:05.899Z,31.10
2018-02-20T00:30:05.901Z,32.30
2018-02-20T00:31:05.881Z,31.60
2018-02-20T00:32:05.868Z,31.20
2018-02-20T00:33:05.857Z,32.20
2018-02-20T00:34:05.845Z,31.60
2018-02-20T00:35:05.836Z,32.20
2018-02-20T00:36:05.822Z,32.80
2018-02-20T00:37:05.814Z,32.50
2018-02-20T00:38:05.804Z,33.00
2018-02-20T00:39:05.793Z,32.80
2018-02-20T00:40:05.783Z,34.20
2018-02-20T00:41:05.772Z,32.90
2018-02-20T00:42:05.760Z,33.70
2018-02-20T00:43:05.753Z,32.40
2018-02-20T00:44:05.747Z,34.00
2018-02-20T00:45:05.729Z,34.40
2018-02-20T00:46:05.718Z,33.80
2018-02-20T00:47:05.707Z,32.70
2018-02-20T00:48:05.695Z,35.10
2018-02-20T00:49:05.685Z,33.70
2018-02-20T00:50:05.684Z,34.30
2018-02-20T00:51:05.663Z,34.90
2018-02-20T00:52:05.654Z,34.10
2018-02-20T00:53:05.647Z,34.40
2018-02-20T00:54:05.632Z,34.20
2018-02-20T00:55:05.623Z,35.80
2018-02-20T00:56:05.617Z,35.60
2018-02-20T00:57:05.607Z,35.40
2018-02-20T00:58:05.589Z,34.80
2018-02-20T00:59:05.581Z,35.10
2018-02-20T01:00:05.569Z,35.70
2018-02-20T01:01:05.560Z,36.30
2018-02-20T01:02:05.550Z,35.60
2018-02-20T01:03:05.535Z,35.80
2018-02-20T01:04:05.528Z,35.80
2018-02-20T01:05:05.515Z,36.70
2018-02-20T01:06:05.503Z,36.30
2018-02-20T01:07:05.494Z,36.80
2018-02-20T01:08:05.484Z,36.90
2018-02-20T01:09:05.474Z,36.70
2018-02-20T01:10:05.463Z,36.40
2018-02-20T01:11:05.458Z,38.20
2018-02-20T01:12:05.438Z,36.00
2018-02-20T01:13:05.431Z,37.20
2018-02-20T01:14:05.425Z,37.60
2018-02-20T01:15:05.404Z,37.30
2018-02-20T01:16:05.400Z,37.60
2018-02-20T01:17:05.390Z,37.20
2018-02-20T01:18:05.376Z,38.20
2018-02-20T01:19:05.366Z,37.70
2018-02-20T01:20:05.354Z,38.90
2018-02-20T01:21:05.344Z,38.00
2018-02-20T01:22:05.335Z,38.70
2018-02-20T01:23:05.324Z,39.00
2018-02-20T01:24:05.312Z,39.60
2018-02-20T01:25:05.301Z,37.20
2018-02-20T01:26:05.290Z,39.20
2018-02-20T01:27:05.275Z,38.90
2018-02-20T01:28:05.269Z,38.60
2018-02-20T01:29:05.257Z,38.90
2018-02-20T01:30:05.246Z,39.60
2018-02-20T01:31:05.238Z,39.90
2018-02-20T01:32:05.228Z,39.20
2018-02-20T01:33:05.213Z,39.80
2018-02-20T01:34:05.208Z,39.30
2018-02-20T01:35:05.194Z,38.50
2018-02-20T01:36:05.183Z,39.30
2018-02-20T01:37:05.173Z,40.00
2018-02-20T01:38:05.161Z,40.70
2018-02-20T01:39:05.149Z,39.20
2018-02-20T01:40:05.139Z,39.00
2018-02-20T01:41:05.129Z,39.20
2018-02-20T01:42:05.118Z,37.90
2018-02-20T01:43:05.108Z,38.50
2018-02-20T01:44:05.095Z,37.80
2018-02-20T01:45:05.086Z,37.70
2018-02-20T01:46:05.075Z,37.40
2018-02-20T01:47:05.063Z,38.80
2018-02-20T01:48:05.056Z,37.50
2018-02-20T01:49:05.044Z,37.90
2018-02-20T01:50:05.034Z,38.60
2018-02-20T01:51:05.020Z,37.50
2018-02-20T01:52:05.011Z,38.20
2018-02-20T01:53:04.999Z,39.10
2018-02-20T01:54:04.989Z,38.80
2018-02-20T01:55:04.982Z,38.80
2018-02-20T01:56:04.976Z,38.40
2018-02-20T01:57:04.960Z,38.20
2018-02-20T01:58:04.975Z,37.50
2018-02-20T01:59:04.934Z,38.40
2018-02-20T02:00:04.927Z,37.40
2018-02-20T02:01:04.914Z,38.70
2018-02-20T02:02:04.904Z,37.30
2018-02-20T02:03:04.893Z,38.50
2018-02-20T02:04:04.887Z,37.30
2018-02-20T02:05:04.873Z,37.80
2018-02-20T02:06:04.861Z,37.90
2018-02-20T02:07:04.851Z,37.20
2018-02-20T02:08:04.841Z,37.00
2018-02-20T02:09:04.829Z,38.60
2018-02-20T02:10:04.819Z,37.20
2018-02-20T02:11:04.808Z,37.00
2018-02-20T02:12:04.799Z,37.10
2018-02-20T02:13:04.786Z,37.40
2018-02-20T02:14:04.779Z,37.50
2018-02-20T02:15:04.771Z,37.50
2018-02-20T02:16:04.755Z,37.90
2018-02-20T02:17:04.743Z,38.90
2018-02-20T02:18:04.734Z,37.50
2018-02-20T02:19:04.723Z,37.90
2018-02-20T02:20:04.714Z,37.90
2018-02-20T02:21:04.702Z,38.30
2018-02-20T02:22:04.688Z,38.90
2018-02-20T02:23:04.680Z,38.70
2018-02-20T02:24:04.670Z,38.50
2018-02-20T02:25:04.658Z,38.00
2018-02-20T02:26:04.646Z,38.80
2018-02-20T02:27:04.638Z,38.60
2018-02-20T02:28:04.631Z,39.10
2018-02-20T02:29:04.617Z,38.80
2018-02-20T02:30:04.611Z,37.50
2018-02-20T02:31:04.597Z,39.20
2018-02-20T02:32:04.586Z,39.10
2018-02-20T02:33:04.573Z,39.70
2018-02-20T02:34:04.569Z,39.00
2018-02-20T02:35:04.555Z,39.70
2018-02-20T02:36:04.548Z,40.00
2018-02-20T02:37:04.531Z,39.60
2018-02-20T02:38:04.520Z,39.70
2018-02-20T02:39:04.514Z,40.50
2018-02-20T02:40:04.501Z,40.00
2018-02-20T02:41:04.488Z,39.50
2018-02-20T02:42:04.477Z,39.50
2018-02-20T02:43:04.465Z,40.30
2018-02-20T02:44:04.456Z,40.30
2018-02-20T02:45:04.446Z,40.50
2018-02-20T02:46:04.436Z,40.20
2018-02-20T02:47:04.424Z,41.00
2018-02-20T02:48:04.419Z,41.70
2018-02-20T02:49:04.411Z,41.70
2018-02-20T02:50:04.394Z,41.50
2018-02-20T02:51:04.387Z,42.80
2018-02-20T02:52:04.371Z,42.60
2018-02-20T02:53:04.359Z,42.20
2018-02-20T02:54:04.348Z,42.10
2018-02-20T02:55:04.337Z,41.00
2018-02-20T02:56:04.328Z,42.60
2018-02-20T02:57:04.315Z,42.50
2018-02-20T02:58:04.304Z,42.70
2018-02-20T02:59:04.295Z,43.10
2018-02-20T03:00:04.288Z,43.80
2018-02-20T03:01:04.268Z,43.10
2018-02-20T03:02:04.263Z,44.00
2018-02-20T03:03:04.260Z,45.20
2018-02-20T03:04:04.238Z,45.30
2018-02-20T03:05:04.229Z,43.10
2018-02-20T03:06:04.222Z,43.60
2018-02-20T03:07:04.205Z,44.40
2018-02-20T03:08:04.198Z,46.00
2018-02-20T03:09:04.185Z,44.90
2018-02-20T03:10:04.175Z,44.20
2018-02-20T03:11:04.164Z,45.00
2018-02-20T03:12:04.156Z,46.70
2018-02-20T03:13:04.139Z,45.90
2018-02-20T03:14:04.130Z,44.30
2018-02-20T03:15:04.121Z,45.10
2018-02-20T03:16:04.111Z,47.70
2018-02-20T03:17:04.097Z,45.90
2018-02-20T03:18:04.090Z,44.60
2018-02-20T03:19:04.076Z,44.40
2018-02-20T03:20:04.065Z,46.00
2018-02-20T03:21:04.053Z,44.90
2018-02-20T03:22:04.040Z,45.60
2018-02-20T03:23:04.031Z,44.90
2018-02-20T03:24:04.019Z,45.00
2018-02-20T03:25:04.007Z,46.00
2018-02-20T03:26:04.007Z,45.70
2018-02-20T03:27:03.985Z,46.40
2018-02-20T03:28:03.983Z,46.30
2018-02-20T03:29:03.966Z,46.00
2018-02-20T03:30:03.954Z,46.00
2018-02-20T03:31:03.943Z,47.10
2018-02-20T03:32:03.933Z,45.70
2018-02-20T03:33:03.918Z,46.40
2018-02-20T03:34:03.910Z,46.00
2018-02-20T03:35:03.896Z,46.60
2018-02-20T03:36:03.891Z,46.40
2018-02-20T03:37:03.872Z,46.30
2018-02-20T03:38:03.861Z,44.70
2018-02-20T03:39:03.852Z,47.90
2018-02-20T03:40:03.842Z,46.20
2018-02-20T03:41:03.831Z,47.00
2018-02-20T03:42:03.818Z,46.10
2018-02-20T03:43:03.807Z,46.30
2018-02-20T03:44:03.795Z,44.90
2018-02-20T03:45:03.787Z,47.30
2018-02-20T03:46:03.773Z,45.30
2018-02-20T03:47:03.760Z,48.50
2018-02-20T03:48:03.753Z,47.60
2018-02-20T03:49:03.739Z,46.40
2018-02-20T03:50:03.729Z,47.40
2018-02-20T03:51:03.717Z,48.20
2018-02-20T03:52:03.707Z,46.60
2018-02-20T03:53:03.694Z,46.90
2018-02-20T03:54:03.680Z,47.00
2018-02-20T03:55:03.675Z,48.70
2018-02-20T03:56:03.662Z,46.70
2018-02-20T03:57:03.648Z,47.00
2018-02-20T03:58:03.641Z,47.60
2018-02-20T03:59:03.629Z,47.50
2018-02-20T04:00:03.617Z,46.70
2018-02-20T04:01:03.605Z,47.10
2018-02-20T04:02:03.602Z,48.50
2018-02-20T04:03:03.582Z,46.90
2018-02-20T04:04:03.574Z,47.00
2018-02-20T04:05:03.566Z,46.60
2018-02-20T04:06:03.549Z,47.60
2018-02-20T04:07:03.536Z,46.40
2018-02-20T04:08:03.527Z,47.20
2018-02-20T04:09:03.513Z,46.40
2018-02-20T04:10:03.499Z,48.00
2018-02-20T04:11:03.495Z,49.60
2018-02-20T04:12:03.480Z,47.10
2018-02-20T04:13:03.470Z,47.50
2018-02-20T04:14:03.456Z,46.70
2018-02-20T04:15:03.448Z,48.40
2018-02-20T04:16:03.434Z,47.80
2018-02-20T04:17:03.424Z,48.00
2018-02-20T04:18:03.418Z,47.70
2018-02-20T04:19:03.403Z,48.00
2018-02-20T04:20:03.388Z,47.70
2018-02-20T04:21:03.377Z,47.40
2018-02-20T04:22:03.366Z,48.70
2018-02-20T04:23:03.359Z,48.50
2018-02-20T04:24:03.344Z,48.10
2018-02-20T04:25:03.332Z,47.10
2018-02-20T04:26:03.322Z,47.20
2018-02-20T04:27:03.311Z,47.70
2018-02-20T04:28:03.299Z,47.70
2018-02-20T04:29:03.288Z,48.80
2018-02-20T04:30:03.277Z,47.50
2018-02-20T04:31:03.265Z,47.90
2018-02-20T04:32:03.252Z,48.20
2018-02-20T04:33:03.241Z,46.20
2018-02-20T04:34:03.231Z,47.60
2018-02-20T04:35:03.220Z,48.80
2018-02-20T04:36:03.209Z,47.20
2018-02-20T04:37:03.198Z,46.70
2018-02-20T04:38:03.187Z,48.10
2018-02-20T04:39:03.174Z,47.20
2018-02-20T04:40:03.168Z,47.80
2018-02-20T04:41:03.159Z,48.10
2018-02-20T04:42:03.142Z,48.00
2018-02-20T04:43:03.129Z,48.10
2018-02-20T04:44:03.116Z,48.10
2018-02-20T04:45:03.106Z,48.20
2018-02-20T04:46:03.094Z,48.00
2018-02-20T04:47:03.084Z,48.20
2018-02-20T04:48:03.073Z,46.20
2018-02-20T04:49:03.061Z,48.20
2018-02-20T04:50:03.051Z,48.20
2018-02-20T04:51:03.040Z,47.40
2018-02-20T04:52:03.030Z,47.60
2018-02-20T04:53:03.017Z,48.20
2018-02-20T04:54:03.004Z,47.70
2018-02-20T04:55:02.998Z,48.90
2018-02-20T04:56:02.988Z,50.00
2018-02-20T04:57:02.968Z,47.60
2018-02-20T04:58:02.960Z,47.20
2018-02-20T04:59:02.948Z,48.50
2018-02-20T05:00:02.935Z,47.60
2018-02-20T05:01:02.925Z,48.00
2018-02-20T05:02:02.914Z,49.50
2018-02-20T05:03:02.902Z,48.70
2018-02-20T05:04:02.893Z,48.50
2018-02-20T05:05:02.882Z,48.20
2018-02-20T05:06:02.869Z,47.90
2018-02-20T05:07:02.858Z,47.40
2018-02-20T05:08:02.849Z,47.80
2018-02-20T05:09:02.835Z,49.40
2018-02-20T05:10:02.824Z,48.60
2018-02-20T05:11:02.813Z,48.20
2018-02-20T05:12:02.804Z,48.20
2018-02-20T05:13:02.788Z,50.10
2018-02-20T05:14:02.774Z,47.80
2018-02-20T05:15:02.770Z,47.00
2018-02-20T05:16:02.759Z,49.00
2018-02-20T05:17:02.744Z,47.90
2018-02-20T05:18:02.732Z,48.50
2018-02-20T05:19:02.721Z,47.50
2018-02-20T05:20:02.708Z,46.20
2018-02-20T05:21:02.700Z,48.20
2018-02-20T05:22:02.687Z,47.90
2018-02-20T05:23:02.675Z,48.00
2018-02-20T05:24:02.665Z,47.00
2018-02-20T05:25:02.654Z,47.90
2018-02-20T05:26:02.643Z,48.20
2018-02-20T05:27:02.632Z,47.40
2018-02-20T05:28:02.621Z,47.60
2018-02-20T05:29:02.608Z,47.80
2018-02-20T05:30:02.597Z,48.30
2018-02-20T05:31:02.597Z,47.40
2018-02-20T05:32:02.576Z,48.40
2018-02-20T05:33:02.563Z,47.70
2018-02-20T05:34:02.550Z,48.70
2018-02-20T05:35:02.541Z,49.40
2018-02-20T05:36:02.528Z,48.20
2018-02-20T05:37:02.514Z,48.40
2018-02-20T05:38:02.506Z,48.10
2018-02-20T05:39:02.499Z,47.90
2018-02-20T05:40:02.500Z,46.10
2018-02-20T05:41:02.471Z,48.70
2018-02-20T05:42:02.466Z,47.10
2018-02-20T05:43:02.448Z,46.20
2018-02-20T05:44:02.442Z,48.50
2018-02-20T05:45:02.427Z,47.20
2018-02-20T05:46:02.416Z,46.20
2018-02-20T05:47:02.402Z,47.50
2018-02-20T05:48:02.392Z,47.00
2018-02-20T05:49:02.379Z,50.20
2018-02-20T05:50:02.373Z,47.10
2018-02-20T05:51:02.356Z,46.80
2018-02-20T05:52:02.345Z,47.00
2018-02-20T05:53:02.334Z,46.60
2018-02-20T05:54:02.320Z,47.00
2018-02-20T05:55:02.311Z,45.00
2018-02-20T05:56:02.299Z,46.50
2018-02-20T05:57:02.288Z,46.10
2018-02-20T05:58:02.276Z,48.60
2018-02-20T05:59:02.265Z,47.20
2018-02-20T06:00:02.256Z,47.50
2018-02-20T06:01:02.244Z,46.60
2018-02-20T06:02:02.230Z,48.50
2018-02-20T06:03:02.221Z,47.00
2018-02-20T06:04:02.207Z,48.50
2018-02-20T06:05:02.196Z,47.60
2018-02-20T06:06:02.183Z,46.30
2018-02-20T06:07:02.173Z,47.90
2018-02-20T06:08:02.161Z,47.60
2018-02-20T06:09:02.148Z,47.20
2018-02-20T06:10:02.139Z,46.10
2018-02-20T06:11:02.125Z,47.30
2018-02-20T06:12:02.115Z,47.90
2018-02-20T06:13:02.106Z,48.00
2018-02-20T06:14:02.098Z,46.90
2018-02-20T06:15:02.077Z,46.90
2018-02-20T06:16:02.074Z,48.30
2018-02-20T06:17:02.057Z,48.60
2018-02-20T06:18:02.045Z,47.20
2018-02-20T06:19:02.036Z,48.20
2018-02-20T06:20:02.022Z,46.80
2018-02-20T06:21:02.013Z,48.60
2018-02-20T06:22:01.998Z,47.70
2018-02-20T06:23:01.989Z,48.20
2018-02-20T06:24:01.980Z,47.00
2018-02-20T06:25:01.963Z,48.40
2018-02-20T06:26:01.952Z,47.80
2018-02-20T06:27:01.940Z,45.90
2018-02-20T06:28:01.936Z,49.20
2018-02-20T06:29:01.917Z,49.80
2018-02-20T06:30:01.908Z,45.90
2018-02-20T06:31:01.903Z,49.50
2018-02-20T06:32:01.884Z,47.80
2018-02-20T06:33:01.872Z,48.10
2018-02-20T06:34:01.862Z,47.20
2018-02-20T06:35:01.848Z,48.00
2018-02-20T06:36:01.839Z,47.80
2018-02-20T06:37:01.825Z,48.10
2018-02-20T06:38:01.812Z,46.20
2018-02-20T06:39:01.801Z,49.50
2018-02-20T06:40:01.793Z,48.90
2018-02-20T06:41:01.777Z,48.90
2018-02-20T06:42:01.770Z,47.00
2018-02-20T06:43:01.757Z,46.20
2018-02-20T06:44:01.745Z,48.70
2018-02-20T06:45:01.733Z,48.80
2018-02-20T06:46:01.725Z,48.40
2018-02-20T06:47:01.711Z,44.10
2018-02-20T06:48:01.698Z,47.90
2018-02-20T06:49:01.686Z,48.30
2018-02-20T06:50:01.674Z,47.50
2018-02-20T06:51:01.663Z,48.90
2018-02-20T06:52:01.652Z,48.10
2018-02-20T06:53:01.640Z,48.80
2018-02-20T06:54:01.625Z,50.50
2018-02-20T06:55:01.617Z,50.80
2018-02-20T06:56:01.605Z,49.20
2018-02-20T06:57:01.591Z,50.10
2018-02-20T06:58:01.590Z,49.40
2018-02-20T06:59:01.573Z,49.50
2018-02-20T07:00:01.558Z,49.60
2018-02-20T07:01:01.546Z,49.50
2018-02-20T07:02:01.535Z,49.90
2018-02-20T07:03:01.524Z,49.30
2018-02-20T07:04:01.517Z,48.90
2018-02-20T07:05:01.499Z,49.00
2018-02-20T07:06:01.488Z,49.30
2018-02-20T07:07:01.477Z,49.50
2018-02-20T07:08:01.466Z,49.40
2018-02-20T07:09:01.454Z,49.70
2018-02-20T07:10:01.443Z,50.00
2018-02-20T07:11:01.430Z,49.20
2018-02-20T07:12:01.420Z,49.60
2018-02-20T07:13:01.405Z,50.00
2018-02-20T07:14:01.400Z,49.00
2018-02-20T07:15:01.386Z,49.50
2018-02-20T07:16:01.387Z,50.00
2018-02-20T07:17:01.362Z,49.80
2018-02-20T07:18:01.350Z,48.40
2018-02-20T07:19:01.339Z,48.60
2018-02-20T07:20:01.329Z,50.10
2018-02-20T07:21:01.317Z,49.20
2018-02-20T07:22:01.306Z,48.70
2018-02-20T07:23:01.295Z,48.30
2018-02-20T07:24:01.283Z,50.10
2018-02-20T07:25:01.276Z,49.20
2018-02-20T07:26:01.262Z,52.00
2018-02-20T07:27:01.248Z,50.40
2018-02-20T07:28:01.236Z,51.00
2018-02-20T07:29:01.222Z,49.20
2018-02-20T07:30:01.214Z,49.80
2018-02-20T07:31:01.203Z,49.60
2018-02-20T07:32:01.190Z,49.20
2018-02-20T07:33:01.180Z,50.90
2018-02-20T07:34:01.169Z,50.50
2018-02-20T07:35:01.161Z,52.50
2018-02-20T07:36:01.146Z,48.40
2018-02-20T07:37:01.136Z,50.30
2018-02-20T07:38:01.125Z,50.30
2018-02-20T07:39:01.111Z,50.00
2018-02-20T07:40:01.101Z,50.50
2018-02-20T07:41:01.087Z,50.50
2018-02-20T07:42:01.082Z,49.70
2018-02-20T07:43:01.068Z,49.10
2018-02-20T07:44:01.058Z,50.60
2018-02-20T07:45:01.042Z,50.00
2018-02-20T07:46:01.034Z,52.10
2018-02-20T07:47:01.023Z,49.40
2018-02-20T07:48:01.010Z,50.20
2018-02-20T07:49:01.000Z,48.10
2018-02-20T07:50:00.987Z,50.50
2018-02-20T07:51:00.977Z,51.50
2018-02-20T07:52:00.966Z,50.00
2018-02-20T07:53:00.954Z,47.60
2018-02-20T07:54:00.949Z,50.80
2018-02-20T07:55:00.931Z,52.10
2018-02-20T07:56:00.919Z,48.50
2018-02-20T07:57:00.910Z,49.00
2018-02-20T07:58:00.898Z,50.40
2018-02-20T07:59:00.885Z,48.70
2018-02-20T08:00:00.877Z,49.20
2018-02-20T08:01:00.865Z,49.70
2018-02-20T08:02:00.850Z,50.70
2018-02-20T08:03:00.844Z,50.40
2018-02-20T08:04:00.828Z,46.60
2018-02-20T08:05:00.818Z,48.50
2018-02-20T08:06:00.814Z,49.30
2018-02-20T08:07:00.794Z,48.10
2018-02-20T08:08:00.782Z,48.30
2018-02-20T08:09:00.770Z,49.00
2018-02-20T08:10:00.765Z,46.90
2018-02-20T08:11:00.806Z,50.40
2018-02-20T08:12:00.740Z,47.80
2018-02-20T08:13:00.728Z,49.30
2018-02-20T08:14:00.721Z,46.80
2018-02-20T08:15:00.707Z,48.60
2018-02-20T08:16:00.696Z,49.00
2018-02-20T08:17:00.684Z,47.90
2018-02-20T08:18:00.672Z,48.40
2018-02-20T08:19:00.663Z,46.80
2018-02-20T08:20:00.651Z,47.40
2018-02-20T08:21:00.640Z,48.00
2018-02-20T08:22:00.629Z,46.10
2018-02-20T08:23:00.618Z,47.20
2018-02-20T08:24:00.611Z,47.60
2018-02-20T08:25:00.594Z,48.60
2018-02-20T08:26:00.585Z,47.50
2018-02-20T08:27:00.573Z,46.40
2018-02-20T08:28:00.563Z,47.40
2018-02-20T08:29:00.547Z,45.90
2018-02-20T08:30:00.540Z,45.90
2018-02-20T08:31:00.534Z,46.90
2018-02-20T08:32:00.540Z,46.50
2018-02-20T08:33:00.505Z,44.80
2018-02-20T08:34:00.494Z,46.50
2018-02-20T08:35:00.483Z,47.50
2018-02-20T08:36:00.472Z,46.80
2018-02-20T08:37:00.462Z,46.50
2018-02-20T08:38:00.451Z,48.90
2018-02-20T08:39:00.439Z,47.10
2018-02-20T08:40:00.434Z,46.60
2018-02-20T08:41:00.416Z,47.40
2018-02-20T08:42:00.401Z,44.40
2018-02-20T08:43:00.395Z,47.00
2018-02-20T08:44:00.387Z,45.50
2018-02-20T08:45:00.373Z,45.70
2018-02-20T08:46:00.362Z,46.10
2018-02-20T08:47:00.354Z,45.90
2018-02-20T08:48:00.340Z,46.70
2018-02-20T08:49:00.332Z,45.20
2018-02-20T08:50:00.319Z,44.20
2018-02-20T08:51:00.306Z,47.00
2018-02-20T08:52:00.296Z,46.50
2018-02-20T08:53:00.292Z,45.60
2018-02-20T08:54:00.273Z,44.40
2018-02-20T08:55:00.264Z,44.90
2018-02-20T08:56:00.253Z,45.60
2018-02-20T08:57:00.241Z,44.60
2018-02-20T08:58:00.231Z,46.20
2018-02-20T08:59:00.221Z,45.20
2018-02-20T09:00:00.212Z,44.40
2018-02-20T09:01:00.197Z,47.50
2018-02-20T09:02:00.188Z,46.70
2018-02-20T09:03:00.175Z,45.80
2018-02-20T09:04:00.168Z,45.40
2018-02-20T09:05:00.157Z,47.10
2018-02-20T09:06:00.144Z,46.50
2018-02-20T09:07:00.135Z,45.00
2018-02-20T09:08:00.125Z,45.40
2018-02-20T09:09:00.110Z,46.00
2018-02-20T09:10:00.148Z,47.30
2018-02-20T09:11:00.173Z,44.90
2018-02-20T09:12:00.132Z,45.50
2018-02-20T09:13:00.069Z,45.80
2018-02-20T09:14:00.065Z,46.20
2018-02-20T09:15:00.052Z,43.90
2018-02-20T09:16:00.039Z,44.40
2018-02-20T09:17:00.039Z,43.90
2018-02-20T09:18:00.014Z,44.50
2018-02-20T09:19:00.006Z,47.10
2018-02-20T09:19:59.996Z,48.00
2018-02-20T09:20:59.987Z,44.80
2018-02-20T09:21:59.977Z,46.80
2018-02-20T09:22:59.968Z,45.20
2018-02-20T09:23:59.955Z,45.50
2018-02-20T09:24:59.941Z,44.60
2018-02-20T09:25:59.935Z,45.00
2018-02-20T09:26:59.921Z,43.70
2018-02-20T09:27:59.914Z,45.50
2018-02-20T09:28:59.901Z,45.70
2018-02-20T09:29:59.887Z,45.50
2018-02-20T09:30:59.881Z,45.20
2018-02-20T09:31:59.871Z,43.80
2018-02-20T09:32:59.859Z,45.00
2018-02-20T09:33:59.854Z,46.00
2018-02-20T09:34:59.840Z,46.80
2018-02-20T09:35:59.827Z,46.90
2018-02-20T09:36:59.815Z,46.00
2018-02-20T09:37:59.839Z,46.80
2018-02-20T09:38:59.798Z,43.60
2018-02-20T09:39:59.788Z,45.10
2018-02-20T09:40:59.782Z,46.10
2018-02-20T09:41:59.765Z,45.00
2018-02-20T09:42:59.754Z,44.50
2018-02-20T09:43:59.744Z,48.40
2018-02-20T09:44:59.733Z,44.60
2018-02-20T09:45:59.723Z,46.40
2018-02-20T09:46:59.712Z,43.70
2018-02-20T09:47:59.707Z,47.50
2018-02-20T09:48:59.692Z,45.20
2018-02-20T09:49:59.680Z,47.20
2018-02-20T09:50:59.682Z,49.20
2018-02-20T09:51:59.663Z,44.90
2018-02-20T09:52:59.650Z,46.80
2018-02-20T09:53:59.640Z,45.40
2018-02-20T09:54:59.628Z,45.60
2018-02-20T09:55:59.620Z,44.30
2018-02-20T09:56:59.609Z,44.60
2018-02-20T09:57:59.603Z,45.60
2018-02-20T09:58:59.586Z,41.20
2018-02-20T09:59:59.576Z,44.60
2018-02-20T10:00:59.566Z,45.50
2018-02-20T10:01:59.556Z,44.70
2018-02-20T10:02:59.546Z,42.80
2018-02-20T10:03:59.541Z,42.40
2018-02-20T10:04:59.524Z,43.70
2018-02-20T10:05:59.516Z,43.80
2018-02-20T10:06:59.505Z,42.40
2018-02-20T10:07:59.538Z,43.70
2018-02-20T10:08:59.483Z,43.00
2018-02-20T10:09:59.479Z,43.40
2018-02-20T10:10:59.464Z,42.30
2018-02-20T10:11:59.453Z,42.70
2018-02-20T10:12:59.444Z,41.80
2018-02-20T10:13:59.433Z,42.20
2018-02-20T10:14:59.423Z,41.70
2018-02-20T10:15:59.413Z,41.00
2018-02-20T10:16:59.402Z,41.60
2018-02-20T10:17:59.395Z,41.00
2018-02-20T10:18:59.389Z,42.50
2018-02-20T10:19:59.372Z,39.70
2018-02-20T10:20:59.364Z,39.90
2018-02-20T10:21:59.358Z,40.40
2018-02-20T10:22:59.343Z,39.10
2018-02-20T10:23:59.334Z,38.60
2018-02-20T10:24:59.321Z,40.30
2018-02-20T10:25:59.312Z,40.80
2018-02-20T10:26:59.312Z,37.10
2018-02-20T10:27:59.294Z,40.10
2018-02-20T10:28:59.283Z,40.00
2018-02-20T10:29:59.275Z,36.70
2018-02-20T10:30:59.263Z,36.90
2018-02-20T10:31:59.252Z,38.10
2018-02-20T10:32:59.242Z,37.40
2018-02-20T10:33:59.233Z,38.40
2018-02-20T10:34:59.222Z,37.60
2018-02-20T10:35:59.211Z,36.20
2018-02-20T10:36:59.199Z,36.10
2018-02-20T10:37:59.190Z,36.10
2018-02-20T10:40:31.302Z,36.00
2018-02-20T10:41:31.270Z,34.70
2018-02-20T10:43:24.686Z,35.40
2018-02-20T10:44:24.653Z,36.20
2018-02-20T10:46:18.038Z,35.60
2018-02-20T10:47:18.022Z,35.30
2018-02-20T10:49:11.424Z,35.20
2018-02-20T10:50:11.394Z,33.60
2018-02-20T10:52:04.796Z,33.80
2018-02-20T10:53:04.768Z,34.00
2018-02-20T10:54:58.141Z,32.10
2018-02-20T10:55:58.127Z,32.50
2018-02-20T10:57:51.520Z,33.00
2018-02-20T10:58:51.492Z,32.60
2018-02-20T11:00:44.873Z,33.90
2018-02-20T11:01:44.854Z,33.20
2018-02-20T11:03:38.245Z,33.00
2018-02-20T11:04:38.215Z,32.90
2018-02-20T11:06:31.591Z,32.30
2018-02-20T11:07:31.580Z,31.10
2018-02-20T11:09:24.980Z,30.90
2018-02-20T11:10:24.948Z,31.50
2018-02-20T11:11:24.943Z,30.90
2018-02-20T11:12:24.932Z,31.20
2018-02-20T11:13:24.924Z,30.50
2018-02-20T11:14:24.914Z,30.20
2018-02-20T11:15:24.904Z,29.90
2018-02-20T11:16:24.895Z,29.50
2018-02-20T11:17:24.887Z,28.70
2018-02-20T11:18:24.878Z,29.40
2018-02-20T11:19:24.870Z,29.20
2018-02-20T11:20:24.860Z,29.10
2018-02-20T11:21:24.850Z,28.40
2018-02-20T11:22:24.842Z,28.00
2018-02-20T11:23:24.829Z,28.20
2018-02-20T11:24:24.827Z,27.30
2018-02-20T11:25:24.811Z,27.10
2018-02-20T11:26:24.805Z,27.50
2018-02-20T11:27:24.800Z,27.10
2018-02-20T11:28:24.785Z,27.20
2018-02-20T11:29:24.775Z,27.70
2018-02-20T11:30:24.768Z,29.40
2018-02-20T11:31:24.755Z,28.10
2018-02-20T11:32:24.751Z,29.00
2018-02-20T11:33:24.741Z,27.80
2018-02-20T11:34:24.731Z,28.60
2018-02-20T11:35:24.723Z,29.20
2018-02-20T11:36:24.711Z,28.20
2018-02-20T11:37:24.704Z,28.80
2018-02-20T11:38:24.695Z,28.50
2018-02-20T11:39:24.693Z,27.90
2018-02-20T11:40:24.675Z,28.40
2018-02-20T11:41:24.667Z,28.40
2018-02-20T11:42:24.659Z,27.60
2018-02-20T11:43:24.648Z,28.30
2018-02-20T11:44:24.641Z,28.40
2018-02-20T11:45:24.630Z,28.10
2018-02-20T11:46:24.621Z,28.40
2018-02-20T11:47:24.612Z,28.20
2018-02-20T11:48:24.604Z,29.10
2018-02-20T11:49:24.592Z,28.10
2018-02-20T11:50:24.582Z,28.60
2018-02-20T11:51:24.578Z,27.00
2018-02-20T11:52:24.566Z,27.20
2018-02-20T11:53:24.557Z,30.20
2018-02-20T11:54:24.548Z,29.60
2018-02-20T11:55:24.538Z,29.80
2018-02-20T11:56:24.529Z,28.80
2018-02-20T11:57:24.517Z,29.30
2018-02-20T11:58:24.801Z,29.00
2018-02-20T11:59:24.501Z,28.70
2018-02-20T12:00:24.492Z,29.20
2018-02-20T12:01:24.599Z,28.80
2018-02-20T12:02:24.476Z,26.50
2018-02-20T12:03:24.468Z,28.40
2018-02-20T12:04:24.469Z,29.90
2018-02-20T12:05:24.455Z,27.90
2018-02-20T12:06:24.441Z,27.50
2018-02-20T12:07:24.432Z,26.30
2018-02-20T12:08:24.418Z,28.50
2018-02-20T12:09:24.410Z,26.50
2018-02-20T12:10:24.399Z,27.10
2018-02-20T12:11:24.392Z,27.20
2018-02-20T12:12:24.387Z,27.20
2018-02-20T12:13:24.378Z,26.60
2018-02-20T12:14:24.367Z,27.60
2018-02-20T12:15:24.355Z,27.00
2018-02-20T12:16:24.345Z,26.00
2018-02-20T12:17:24.338Z,26.70
2018-02-20T12:18:24.328Z,26.00
2018-02-20T12:19:24.319Z,26.80
2018-02-20T12:20:24.308Z,25.50
2018-02-20T12:21:24.302Z,25.60
2018-02-20T12:22:24.295Z,25.20
2018-02-20T12:23:24.281Z,25.80
2018-02-20T12:24:24.278Z,24.90
2018-02-20T12:25:24.265Z,23.70
2018-02-20T12:26:24.254Z,24.70
2018-02-20T12:27:24.320Z,25.40
2018-02-20T12:28:24.238Z,25.30
2018-02-20T12:29:24.232Z,24.40
2018-02-20T12:30:24.225Z,24.20
2018-02-20T12:31:24.207Z,25.30
2018-02-20T12:32:24.202Z,25.80
2018-02-20T12:33:24.194Z,25.50
2018-02-20T12:34:24.181Z,22.80
2018-02-20T12:35:24.173Z,23.90
2018-02-20T12:36:24.165Z,23.10
2018-02-20T12:37:24.169Z,24.50
2018-02-20T12:38:24.151Z,23.30
2018-02-20T12:39:24.138Z,24.00
2018-02-20T12:40:24.128Z,24.20
2018-02-20T12:41:24.120Z,24.60
2018-02-20T12:42:24.112Z,25.00
2018-02-20T12:43:24.105Z,25.10
2018-02-20T12:44:24.092Z,24.40
2018-02-20T12:45:24.082Z,24.80
2018-02-20T12:46:24.084Z,23.80
2018-02-20T12:47:24.066Z,25.00
2018-02-20T12:48:24.057Z,25.30
2018-02-20T12:49:24.047Z,25.00
2018-02-20T12:50:24.041Z,23.80
2018-02-20T12:51:24.035Z,23.90
2018-02-20T12:52:24.022Z,24.60
2018-02-20T12:53:24.024Z,24.00
2018-02-20T12:54:24.041Z,22.50
2018-02-20T12:55:23.994Z,23.80
2018-02-20T12:56:23.990Z,24.90
2018-02-20T12:57:23.977Z,25.40
2018-02-20T12:58:23.970Z,24.30
2018-02-20T12:59:23.961Z,23.90
2018-02-20T13:00:23.945Z,24.60
2018-02-20T13:01:23.944Z,24.80
2018-02-20T13:02:23.931Z,24.50